sensor_id;sensor_type;location;lat;lon;timestamp;pressure;altitude;pressure_sealevel;temperature;humidity
8101;BME280;4093;53.470;9.832;2023-03-31T00:01:06;100158.22;;;14.26;89.73
8101;BME280;4093;53.470;9.832;2023-03-31T00:03:34;100089.72;;;13.64;90.30
8101;BME280;4093;53.470;9.832;2023-03-31T00:06:05;100160.03;;;14.24;89.82
8101;BME280;4093;53.470;9.832;2023-03-31T00:08:33;100160.69;;;14.29;89.29
8101;BME280;4093;53.470;9.832;2023-03-31T00:11:03;100144.47;;;14.02;89.35
8101;BME280;4093;53.470;9.832;2023-03-31T00:13:33;100155.38;;;13.90;89.89
8101;BME280;4093;53.470;9.832;2023-03-31T00:16:03;100141.31;;;13.94;89.41
8101;BME280;4093;53.470;9.832;2023-03-31T00:18:32;100135.56;;;14.08;88.98
8101;BME280;4093;53.470;9.832;2023-03-31T00:21:07;100138.44;;;14.43;87.09
8101;BME280;4093;53.470;9.832;2023-03-31T00:23:40;100142.56;;;14.47;86.48
8101;BME280;4093;53.470;9.832;2023-03-31T00:26:08;100144.59;;;14.40;87.43
8101;BME280;4093;53.470;9.832;2023-03-31T00:28:36;100130.69;;;14.41;85.96
8101;BME280;4093;53.470;9.832;2023-03-31T00:31:03;100134.84;;;14.66;85.13
8101;BME280;4093;53.470;9.832;2023-03-31T00:33:31;100117.69;;;14.21;86.43
8101;BME280;4093;53.470;9.832;2023-03-31T00:35:59;100123.41;;;14.08;86.72
8101;BME280;4093;53.470;9.832;2023-03-31T00:38:33;100125.25;;;14.27;85.89
8101;BME280;4093;53.470;9.832;2023-03-31T00:41:02;100120.03;;;14.27;86.47
8101;BME280;4093;53.470;9.832;2023-03-31T00:43:32;100119.69;;;14.34;85.13
8101;BME280;4093;53.470;9.832;2023-03-31T00:46:05;100128.16;;;14.60;84.63
8101;BME280;4093;53.470;9.832;2023-03-31T00:48:35;100114.31;;;14.19;86.18
8101;BME280;4093;53.470;9.832;2023-03-31T00:51:06;100110.75;;;14.21;85.24
8101;BME280;4093;53.470;9.832;2023-03-31T00:53:35;100106.59;;;14.17;85.65
8101;BME280;4093;53.470;9.832;2023-03-31T00:56:07;100107.00;;;14.47;84.79
8101;BME280;4093;53.470;9.832;2023-03-31T00:58:36;100100.19;;;14.84;83.53
8101;BME280;4093;53.470;9.832;2023-03-31T01:01:12;100090.59;;;14.66;83.36
8101;BME280;4093;53.470;9.832;2023-03-31T01:03:43;100028.88;;;14.30;83.39
8101;BME280;4093;53.470;9.832;2023-03-31T01:06:13;100097.38;;;14.51;84.18
8101;BME280;4093;53.470;9.832;2023-03-31T01:08:47;100085.41;;;14.66;82.92
8101;BME280;4093;53.470;9.832;2023-03-31T01:11:18;100082.59;;;14.10;85.31
8101;BME280;4093;53.470;9.832;2023-03-31T01:13:47;100077.38;;;14.51;84.62
8101;BME280;4093;53.470;9.832;2023-03-31T01:16:17;100069.81;;;14.45;84.39
8101;BME280;4093;53.470;9.832;2023-03-31T01:18:45;100043.28;;;14.37;84.47
8101;BME280;4093;53.470;9.832;2023-03-31T01:21:38;100061.38;;;14.40;84.06
8101;BME280;4093;53.470;9.832;2023-03-31T01:24:46;100066.28;;;14.67;83.57
8101;BME280;4093;53.470;9.832;2023-03-31T01:27:43;100057.50;;;14.30;84.19
8101;BME280;4093;53.470;9.832;2023-03-31T01:30:57;100054.28;;;14.04;84.56
8101;BME280;4093;53.470;9.832;2023-03-31T01:33:45;100036.97;;;14.03;85.45
8101;BME280;4093;53.470;9.832;2023-03-31T01:36:33;100033.72;;;13.78;85.97
8101;BME280;4093;53.470;9.832;2023-03-31T01:39:20;100030.03;;;13.83;85.94
8101;BME280;4093;53.470;9.832;2023-03-31T01:42:03;100019.56;;;14.05;85.66
8101;BME280;4093;53.470;9.832;2023-03-31T01:44:41;100033.47;;;14.04;85.35
8101;BME280;4093;53.470;9.832;2023-03-31T01:47:13;100036.25;;;14.00;85.71
8101;BME280;4093;53.470;9.832;2023-03-31T01:49:55;100032.69;;;14.02;85.20
8101;BME280;4093;53.470;9.832;2023-03-31T01:52:29;100024.91;;;13.61;87.05
8101;BME280;4093;53.470;9.832;2023-03-31T01:55:06;100026.84;;;13.77;86.54
8101;BME280;4093;53.470;9.832;2023-03-31T01:57:39;100022.22;;;13.63;86.14
8101;BME280;4093;53.470;9.832;2023-03-31T02:00:10;100013.00;;;13.35;89.16
8101;BME280;4093;53.470;9.832;2023-03-31T02:02:42;100032.78;;;13.38;89.58
8101;BME280;4093;53.470;9.832;2023-03-31T02:05:15;100014.41;;;13.20;90.84
8101;BME280;4093;53.470;9.832;2023-03-31T02:07:47;100011.75;;;13.44;88.87
8101;BME280;4093;53.470;9.832;2023-03-31T02:10:19;99987.63;;;13.20;89.16
8101;BME280;4093;53.470;9.832;2023-03-31T02:12:50;100003.06;;;13.45;89.20
8101;BME280;4093;53.470;9.832;2023-03-31T02:15:21;100006.09;;;13.34;89.08
8101;BME280;4093;53.470;9.832;2023-03-31T02:17:53;99996.97;;;13.46;88.12
8101;BME280;4093;53.470;9.832;2023-03-31T02:20:22;99996.97;;;13.24;89.37
8101;BME280;4093;53.470;9.832;2023-03-31T02:22:53;99986.91;;;13.38;89.19
8101;BME280;4093;53.470;9.832;2023-03-31T02:25:25;99991.50;;;13.32;89.76
8101;BME280;4093;53.470;9.832;2023-03-31T02:28:00;99979.88;;;13.18;89.53
8101;BME280;4093;53.470;9.832;2023-03-31T02:30:39;99981.47;;;13.23;89.21
8101;BME280;4093;53.470;9.832;2023-03-31T02:33:07;99981.88;;;13.34;89.82
8101;BME280;4093;53.470;9.832;2023-03-31T02:35:35;99978.31;;;13.36;88.80
8101;BME280;4093;53.470;9.832;2023-03-31T02:38:03;99973.47;;;13.29;88.62
8101;BME280;4093;53.470;9.832;2023-03-31T02:40:32;99974.38;;;13.48;88.60
8101;BME280;4093;53.470;9.832;2023-03-31T02:43:01;99970.19;;;13.44;89.22
8101;BME280;4093;53.470;9.832;2023-03-31T02:45:36;99964.13;;;13.45;88.73
8101;BME280;4093;53.470;9.832;2023-03-31T02:48:06;99956.97;;;13.30;90.00
8101;BME280;4093;53.470;9.832;2023-03-31T02:50:47;99952.13;;;13.20;89.36
8101;BME280;4093;53.470;9.832;2023-03-31T02:53:22;99966.25;;;13.35;90.67
8101;BME280;4093;53.470;9.832;2023-03-31T02:56:07;99962.28;;;13.27;89.45
8101;BME280;4093;53.470;9.832;2023-03-31T02:58:57;99953.69;;;13.25;90.52
8101;BME280;4093;53.470;9.832;2023-03-31T03:01:41;99957.13;;;13.25;91.21
8101;BME280;4093;53.470;9.832;2023-03-31T03:04:24;99947.63;;;13.26;90.70
8101;BME280;4093;53.470;9.832;2023-03-31T03:07:02;99947.88;;;13.40;90.05
8101;BME280;4093;53.470;9.832;2023-03-31T03:09:36;99947.50;;;13.29;89.37
8101;BME280;4093;53.470;9.832;2023-03-31T03:12:12;99949.09;;;13.31;90.29
8101;BME280;4093;53.470;9.832;2023-03-31T03:14:48;99943.38;;;13.23;90.63
8101;BME280;4093;53.470;9.832;2023-03-31T03:17:22;99931.28;;;13.22;89.90
8101;BME280;4093;53.470;9.832;2023-03-31T03:19:53;99896.03;;;12.74;90.94
8101;BME280;4093;53.470;9.832;2023-03-31T03:22:21;99939.00;;;13.24;91.14
8101;BME280;4093;53.470;9.832;2023-03-31T03:24:49;99932.94;;;13.03;90.81
8101;BME280;4093;53.470;9.832;2023-03-31T03:27:18;99923.66;;;12.97;91.29
8101;BME280;4093;53.470;9.832;2023-03-31T03:29:49;99916.28;;;13.08;89.91
8101;BME280;4093;53.470;9.832;2023-03-31T03:32:17;99930.75;;;13.36;89.94
8101;BME280;4093;53.470;9.832;2023-03-31T03:34:44;99927.34;;;13.34;90.45
8101;BME280;4093;53.470;9.832;2023-03-31T03:37:12;99914.09;;;13.19;91.17
8101;BME280;4093;53.470;9.832;2023-03-31T03:39:40;99917.81;;;13.12;91.69
8101;BME280;4093;53.470;9.832;2023-03-31T03:42:07;99911.03;;;13.32;90.18
8101;BME280;4093;53.470;9.832;2023-03-31T03:44:35;99910.94;;;13.33;90.47
8101;BME280;4093;53.470;9.832;2023-03-31T03:47:04;99910.28;;;13.06;92.17
8101;BME280;4093;53.470;9.832;2023-03-31T03:49:32;99903.06;;;13.35;90.72
8101;BME280;4093;53.470;9.832;2023-03-31T03:52:00;99902.13;;;13.15;91.92
8101;BME280;4093;53.470;9.832;2023-03-31T03:54:28;99898.09;;;13.08;92.54
8101;BME280;4093;53.470;9.832;2023-03-31T03:56:55;99896.16;;;12.93;93.19
8101;BME280;4093;53.470;9.832;2023-03-31T03:59:23;99884.09;;;12.92;93.34
8101;BME280;4093;53.470;9.832;2023-03-31T04:01:51;99892.84;;;13.10;92.84
8101;BME280;4093;53.470;9.832;2023-03-31T04:04:20;99885.72;;;13.15;92.97
8101;BME280;4093;53.470;9.832;2023-03-31T04:06:48;99874.47;;;13.36;91.63
8101;BME280;4093;53.470;9.832;2023-03-31T04:09:16;99873.28;;;13.23;92.67
8101;BME280;4093;53.470;9.832;2023-03-31T04:11:43;99866.88;;;13.32;92.06
8101;BME280;4093;53.470;9.832;2023-03-31T04:14:11;99874.59;;;13.33;93.29
8101;BME280;4093;53.470;9.832;2023-03-31T04:16:39;99865.88;;;13.55;91.61
8101;BME280;4093;53.470;9.832;2023-03-31T04:19:08;99858.63;;;13.42;91.81
8101;BME280;4093;53.470;9.832;2023-03-31T04:21:38;99848.69;;;13.32;92.59
8101;BME280;4093;53.470;9.832;2023-03-31T04:24:11;99848.25;;;13.00;94.02
8101;BME280;4093;53.470;9.832;2023-03-31T04:26:41;99845.50;;;13.25;93.34
8101;BME280;4093;53.470;9.832;2023-03-31T04:29:09;99846.34;;;13.46;92.03
8101;BME280;4093;53.470;9.832;2023-03-31T04:31:38;99839.81;;;13.56;91.50
8101;BME280;4093;53.470;9.832;2023-03-31T04:34:08;99839.88;;;13.36;92.92
8101;BME280;4093;53.470;9.832;2023-03-31T04:36:41;99844.53;;;13.67;90.92
8101;BME280;4093;53.470;9.832;2023-03-31T04:39:14;99823.91;;;13.25;92.37
8101;BME280;4093;53.470;9.832;2023-03-31T04:41:44;99821.28;;;13.25;92.75
8101;BME280;4093;53.470;9.832;2023-03-31T04:44:11;99824.19;;;13.37;92.31
8101;BME280;4093;53.470;9.832;2023-03-31T04:46:39;99817.22;;;13.58;91.37
8101;BME280;4093;53.470;9.832;2023-03-31T04:49:07;99817.50;;;13.52;91.16
8101;BME280;4093;53.470;9.832;2023-03-31T04:51:35;99807.34;;;13.27;92.67
8101;BME280;4093;53.470;9.832;2023-03-31T04:54:04;99815.13;;;13.48;91.41
8101;BME280;4093;53.470;9.832;2023-03-31T04:56:32;99812.88;;;13.59;90.54
8101;BME280;4093;53.470;9.832;2023-03-31T04:59:02;99792.78;;;13.43;91.46
8101;BME280;4093;53.470;9.832;2023-03-31T05:01:30;99792.63;;;13.65;90.86
8101;BME280;4093;53.470;9.832;2023-03-31T05:04:02;99791.47;;;13.92;89.31
8101;BME280;4093;53.470;9.832;2023-03-31T05:06:30;99787.09;;;13.54;90.53
8101;BME280;4093;53.470;9.832;2023-03-31T05:08:58;99773.75;;;13.81;89.36
8101;BME280;4093;53.470;9.832;2023-03-31T05:11:27;99778.19;;;13.98;88.88
8101;BME280;4093;53.470;9.832;2023-03-31T05:13:55;99765.94;;;14.00;88.21
8101;BME280;4093;53.470;9.832;2023-03-31T05:16:23;99765.53;;;13.90;88.58
8101;BME280;4093;53.470;9.832;2023-03-31T05:18:51;99766.28;;;14.11;87.57
8101;BME280;4093;53.470;9.832;2023-03-31T05:21:19;99763.72;;;13.73;88.93
8101;BME280;4093;53.470;9.832;2023-03-31T05:23:48;99760.34;;;13.90;88.32
8101;BME280;4093;53.470;9.832;2023-03-31T05:26:16;99726.53;;;13.73;87.57
8101;BME280;4093;53.470;9.832;2023-03-31T05:28:45;99736.94;;;13.54;88.26
8101;BME280;4093;53.470;9.832;2023-03-31T05:31:13;99750.88;;;13.89;87.86
8101;BME280;4093;53.470;9.832;2023-03-31T05:33:41;99744.69;;;13.92;87.52
8101;BME280;4093;53.470;9.832;2023-03-31T05:36:10;99736.94;;;13.54;89.31
8101;BME280;4093;53.470;9.832;2023-03-31T05:38:39;99730.81;;;13.91;87.49
8101;BME280;4093;53.470;9.832;2023-03-31T05:41:07;99716.91;;;13.37;88.92
8101;BME280;4093;53.470;9.832;2023-03-31T05:43:36;99731.78;;;13.71;88.41
8101;BME280;4093;53.470;9.832;2023-03-31T05:46:06;99736.28;;;14.04;86.66
8101;BME280;4093;53.470;9.832;2023-03-31T05:48:34;99737.00;;;14.07;87.25
8101;BME280;4093;53.470;9.832;2023-03-31T05:51:03;99693.34;;;13.78;86.82
8101;BME280;4093;53.470;9.832;2023-03-31T05:53:30;99720.06;;;13.99;86.87
8101;BME280;4093;53.470;9.832;2023-03-31T05:56:00;99722.59;;;13.64;88.56
8101;BME280;4093;53.470;9.832;2023-03-31T05:58:29;99725.72;;;14.07;87.02
8101;BME280;4093;53.470;9.832;2023-03-31T06:01:02;99729.09;;;14.09;86.53
8101;BME280;4093;53.470;9.832;2023-03-31T06:03:34;99660.28;;;14.16;85.08
8101;BME280;4093;53.470;9.832;2023-03-31T06:06:04;99712.31;;;14.33;85.69
8101;BME280;4093;53.470;9.832;2023-03-31T06:08:33;99693.63;;;14.43;84.55
8101;BME280;4093;53.470;9.832;2023-03-31T06:11:03;99704.03;;;14.43;85.43
8101;BME280;4093;53.470;9.832;2023-03-31T06:13:32;99664.66;;;14.33;84.09
8101;BME280;4093;53.470;9.832;2023-03-31T06:16:00;99692.03;;;14.05;85.54
8101;BME280;4093;53.470;9.832;2023-03-31T06:18:29;99675.38;;;14.27;85.47
8101;BME280;4093;53.470;9.832;2023-03-31T06:20:59;99658.53;;;13.99;85.22
8101;BME280;4093;53.470;9.832;2023-03-31T06:23:27;99698.50;;;13.97;86.42
8101;BME280;4093;53.470;9.832;2023-03-31T06:25:59;99696.13;;;13.92;87.26
8101;BME280;4093;53.470;9.832;2023-03-31T06:28:28;99701.38;;;14.27;85.80
8101;BME280;4093;53.470;9.832;2023-03-31T06:31:00;99691.56;;;14.49;85.07
8101;BME280;4093;53.470;9.832;2023-03-31T06:33:28;99697.63;;;15.00;83.28
8101;BME280;4093;53.470;9.832;2023-03-31T06:35:56;99676.91;;;14.81;84.30
8101;BME280;4093;53.470;9.832;2023-03-31T06:38:26;99687.09;;;14.86;83.74
8101;BME280;4093;53.470;9.832;2023-03-31T06:40:55;99691.28;;;14.55;84.96
8101;BME280;4093;53.470;9.832;2023-03-31T06:43:22;99692.41;;;14.50;84.50
8101;BME280;4093;53.470;9.832;2023-03-31T06:45:51;99668.97;;;14.51;83.79
8101;BME280;4093;53.470;9.832;2023-03-31T06:48:20;99689.72;;;14.86;83.56
8101;BME280;4093;53.470;9.832;2023-03-31T06:50:48;99647.13;;;14.37;84.54
8101;BME280;4093;53.470;9.832;2023-03-31T06:53:16;99674.16;;;14.17;85.58
8101;BME280;4093;53.470;9.832;2023-03-31T06:55:46;99678.91;;;14.26;85.71
8101;BME280;4093;53.470;9.832;2023-03-31T06:58:13;99678.88;;;14.43;85.66
8101;BME280;4093;53.470;9.832;2023-03-31T07:00:41;99674.69;;;14.91;84.10
8101;BME280;4093;53.470;9.832;2023-03-31T07:03:11;99666.88;;;14.58;84.28
8101;BME280;4093;53.470;9.832;2023-03-31T07:05:40;99673.34;;;14.32;86.15
8101;BME280;4093;53.470;9.832;2023-03-31T07:08:07;99666.63;;;14.28;85.96
8101;BME280;4093;53.470;9.832;2023-03-31T07:10:36;99646.28;;;14.19;86.11
8101;BME280;4093;53.470;9.832;2023-03-31T07:13:05;99660.66;;;13.91;88.02
8101;BME280;4093;53.470;9.832;2023-03-31T07:15:32;99668.88;;;13.64;90.22
8101;BME280;4093;53.470;9.832;2023-03-31T07:18:00;99668.16;;;13.80;89.93
8101;BME280;4093;53.470;9.832;2023-03-31T07:20:29;99660.50;;;13.77;90.46
8101;BME280;4093;53.470;9.832;2023-03-31T07:22:58;99666.88;;;14.06;90.10
8101;BME280;4093;53.470;9.832;2023-03-31T07:25:25;99649.72;;;13.84;90.68
8101;BME280;4093;53.470;9.832;2023-03-31T07:27:53;99664.81;;;14.12;88.84
8101;BME280;4093;53.470;9.832;2023-03-31T07:30:22;99664.25;;;13.88;90.00
8101;BME280;4093;53.470;9.832;2023-03-31T07:32:51;99658.03;;;13.74;91.01
8101;BME280;4093;53.470;9.832;2023-03-31T07:35:21;99659.13;;;13.70;91.69
8101;BME280;4093;53.470;9.832;2023-03-31T07:37:50;99656.91;;;13.97;90.11
8101;BME280;4093;53.470;9.832;2023-03-31T07:40:20;99660.19;;;14.00;90.69
8101;BME280;4093;53.470;9.832;2023-03-31T07:42:49;99634.31;;;13.99;89.98
8101;BME280;4093;53.470;9.832;2023-03-31T07:45:18;99649.56;;;13.87;90.98
8101;BME280;4093;53.470;9.832;2023-03-31T07:47:47;99657.22;;;13.91;91.56
8101;BME280;4093;53.470;9.832;2023-03-31T07:50:16;99607.31;;;13.67;91.11
8101;BME280;4093;53.470;9.832;2023-03-31T07:52:44;99642.84;;;13.83;91.86
8101;BME280;4093;53.470;9.832;2023-03-31T07:55:13;99632.84;;;14.10;90.90
8101;BME280;4093;53.470;9.832;2023-03-31T07:57:42;99640.31;;;13.82;92.28
8101;BME280;4093;53.470;9.832;2023-03-31T08:00:13;99632.28;;;13.69;93.80
8101;BME280;4093;53.470;9.832;2023-03-31T08:02:42;99638.22;;;14.07;92.08
8101;BME280;4093;53.470;9.832;2023-03-31T08:05:15;99633.00;;;14.07;91.59
8101;BME280;4093;53.470;9.832;2023-03-31T08:07:45;99642.03;;;14.18;91.88
8101;BME280;4093;53.470;9.832;2023-03-31T08:10:17;99637.25;;;13.91;93.53
8101;BME280;4093;53.470;9.832;2023-03-31T08:12:46;99630.97;;;14.47;91.40
8101;BME280;4093;53.470;9.832;2023-03-31T08:15:14;99633.28;;;14.36;91.61
8101;BME280;4093;53.470;9.832;2023-03-31T08:17:42;99624.88;;;14.48;91.21
8101;BME280;4093;53.470;9.832;2023-03-31T08:20:11;99592.56;;;13.67;94.15
8101;BME280;4093;53.470;9.832;2023-03-31T08:22:39;99620.75;;;14.27;92.10
8101;BME280;4093;53.470;9.832;2023-03-31T08:25:08;99610.75;;;14.02;93.15
8101;BME280;4093;53.470;9.832;2023-03-31T08:27:37;99592.03;;;13.78;93.16
8101;BME280;4093;53.470;9.832;2023-03-31T08:30:07;99607.00;;;13.90;93.40
8101;BME280;4093;53.470;9.832;2023-03-31T08:32:36;99614.03;;;13.88;93.33
8101;BME280;4093;53.470;9.832;2023-03-31T08:35:05;99620.00;;;14.07;93.30
8101;BME280;4093;53.470;9.832;2023-03-31T08:37:34;99605.00;;;14.12;92.47
8101;BME280;4093;53.470;9.832;2023-03-31T08:40:03;99609.44;;;14.28;92.03
8101;BME280;4093;53.470;9.832;2023-03-31T08:42:38;99587.41;;;13.48;94.00
8101;BME280;4093;53.470;9.832;2023-03-31T08:45:12;99587.00;;;13.92;93.23
8101;BME280;4093;53.470;9.832;2023-03-31T08:47:45;99603.16;;;13.97;94.46
8101;BME280;4093;53.470;9.832;2023-03-31T08:50:16;99596.22;;;14.15;93.05
8101;BME280;4093;53.470;9.832;2023-03-31T08:52:49;99591.03;;;14.15;93.42
8101;BME280;4093;53.470;9.832;2023-03-31T08:55:24;99580.53;;;13.82;93.26
8101;BME280;4093;53.470;9.832;2023-03-31T08:57:56;99585.38;;;13.89;93.85
8101;BME280;4093;53.470;9.832;2023-03-31T09:00:31;99583.72;;;14.39;92.53
8101;BME280;4093;53.470;9.832;2023-03-31T09:03:08;99565.72;;;13.49;95.49
8101;BME280;4093;53.470;9.832;2023-03-31T09:05:46;99573.47;;;13.85;94.83
8101;BME280;4093;53.470;9.832;2023-03-31T09:08:38;99577.81;;;14.20;93.93
8101;BME280;4093;53.470;9.832;2023-03-31T09:11:13;99572.47;;;14.72;91.64
8101;BME280;4093;53.470;9.832;2023-03-31T09:14:16;99554.34;;;14.54;91.81
8101;BME280;4093;53.470;9.832;2023-03-31T09:16:47;99544.31;;;14.14;93.21
8101;BME280;4093;53.470;9.832;2023-03-31T09:19:20;99516.16;;;14.38;92.01
8101;BME280;4093;53.470;9.832;2023-03-31T09:21:52;99527.50;;;14.03;94.49
8101;BME280;4093;53.470;9.832;2023-03-31T09:24:26;99522.41;;;13.84;95.56
8101;BME280;4093;53.470;9.832;2023-03-31T09:27:00;99541.09;;;14.75;92.03
8101;BME280;4093;53.470;9.832;2023-03-31T09:29:30;99534.03;;;14.77;90.91
8101;BME280;4093;53.470;9.832;2023-03-31T09:32:01;99529.56;;;14.63;91.93
8101;BME280;4093;53.470;9.832;2023-03-31T09:34:36;99535.25;;;14.54;91.75
8101;BME280;4093;53.470;9.832;2023-03-31T09:37:04;99530.44;;;14.64;91.60
8101;BME280;4093;53.470;9.832;2023-03-31T09:39:33;99531.00;;;14.85;91.30
8101;BME280;4093;53.470;9.832;2023-03-31T09:42:01;99525.38;;;15.24;90.45
8101;BME280;4093;53.470;9.832;2023-03-31T09:44:35;99516.22;;;15.17;90.11
8101;BME280;4093;53.470;9.832;2023-03-31T09:47:05;99510.84;;;15.20;89.69
8101;BME280;4093;53.470;9.832;2023-03-31T09:49:37;99516.94;;;15.35;88.74
8101;BME280;4093;53.470;9.832;2023-03-31T09:52:25;99511.28;;;14.96;91.55
8101;BME280;4093;53.470;9.832;2023-03-31T09:54:58;99494.25;;;14.75;91.21
8101;BME280;4093;53.470;9.832;2023-03-31T09:57:28;99502.38;;;14.85;91.39
8101;BME280;4093;53.470;9.832;2023-03-31T10:00:05;99474.69;;;15.30;88.77
8101;BME280;4093;53.470;9.832;2023-03-31T10:02:41;99457.63;;;14.94;89.68
8101;BME280;4093;53.470;9.832;2023-03-31T10:05:22;99465.16;;;14.35;91.85
8101;BME280;4093;53.470;9.832;2023-03-31T10:07:53;99479.78;;;14.85;90.79
8101;BME280;4093;53.470;9.832;2023-03-31T10:10:43;99486.28;;;14.78;91.58
8101;BME280;4093;53.470;9.832;2023-03-31T10:13:15;99488.38;;;14.87;91.16
8101;BME280;4093;53.470;9.832;2023-03-31T10:15:43;99479.97;;;14.98;91.01
8101;BME280;4093;53.470;9.832;2023-03-31T10:18:13;99486.50;;;15.35;90.06
8101;BME280;4093;53.470;9.832;2023-03-31T10:20:43;99462.00;;;14.93;90.63
8101;BME280;4093;53.470;9.832;2023-03-31T10:23:16;99465.88;;;14.86;90.88
8101;BME280;4093;53.470;9.832;2023-03-31T10:25:46;99475.97;;;15.22;90.63
8101;BME280;4093;53.470;9.832;2023-03-31T10:28:16;99468.63;;;15.29;89.78
8101;BME280;4093;53.470;9.832;2023-03-31T10:30:47;99468.00;;;15.10;91.44
8101;BME280;4093;53.470;9.832;2023-03-31T10:33:18;99441.63;;;14.86;92.61
8101;BME280;4093;53.470;9.832;2023-03-31T10:35:49;99446.16;;;15.12;90.26
8101;BME280;4093;53.470;9.832;2023-03-31T10:38:24;99447.84;;;15.73;88.63
8101;BME280;4093;53.470;9.832;2023-03-31T10:40:55;99447.25;;;15.68;87.91
8101;BME280;4093;53.470;9.832;2023-03-31T10:43:26;99449.84;;;15.24;89.57
8101;BME280;4093;53.470;9.832;2023-03-31T10:45:57;99454.63;;;15.90;88.58
8101;BME280;4093;53.470;9.832;2023-03-31T10:48:28;99439.63;;;15.35;89.58
8101;BME280;4093;53.470;9.832;2023-03-31T10:50:59;99420.03;;;15.44;89.00
8101;BME280;4093;53.470;9.832;2023-03-31T10:53:27;99435.22;;;15.66;88.00
8101;BME280;4093;53.470;9.832;2023-03-31T10:56:05;99435.75;;;15.57;89.27
8101;BME280;4093;53.470;9.832;2023-03-31T10:58:59;99417.56;;;14.96;90.22
8101;BME280;4093;53.470;9.832;2023-03-31T11:01:41;99436.66;;;15.41;90.31
8101;BME280;4093;53.470;9.832;2023-03-31T11:04:30;99416.06;;;15.22;89.72
8101;BME280;4093;53.470;9.832;2023-03-31T11:07:07;99428.66;;;15.30;90.00
8101;BME280;4093;53.470;9.832;2023-03-31T11:09:45;99411.25;;;15.00;89.56
8101;BME280;4093;53.470;9.832;2023-03-31T11:12:23;99419.38;;;15.40;89.02
8101;BME280;4093;53.470;9.832;2023-03-31T11:15:05;99419.84;;;15.47;88.89
8101;BME280;4093;53.470;9.832;2023-03-31T11:17:45;99408.44;;;15.19;89.32
8101;BME280;4093;53.470;9.832;2023-03-31T11:20:18;99420.38;;;15.23;89.62
8101;BME280;4093;53.470;9.832;2023-03-31T11:22:53;99418.97;;;15.32;89.32
8101;BME280;4093;53.470;9.832;2023-03-31T11:25:32;99407.03;;;15.14;89.95
8101;BME280;4093;53.470;9.832;2023-03-31T11:28:21;99419.00;;;15.46;88.49
8101;BME280;4093;53.470;9.832;2023-03-31T11:30:57;99408.22;;;15.08;88.41
8101;BME280;4093;53.470;9.832;2023-03-31T11:33:39;99407.81;;;14.70;92.14
8101;BME280;4093;53.470;9.832;2023-03-31T11:36:19;99406.13;;;14.69;91.28
8101;BME280;4093;53.470;9.832;2023-03-31T11:39:06;99416.84;;;14.78;91.30
8101;BME280;4093;53.470;9.832;2023-03-31T11:41:40;99399.25;;;14.68;91.49
8101;BME280;4093;53.470;9.832;2023-03-31T11:44:14;99398.09;;;14.57;92.68
8101;BME280;4093;53.470;9.832;2023-03-31T11:46:45;99396.47;;;15.01;91.16
8101;BME280;4093;53.470;9.832;2023-03-31T11:49:17;99394.75;;;15.16;89.42
8101;BME280;4093;53.470;9.832;2023-03-31T11:51:50;99371.34;;;15.30;89.14
8101;BME280;4093;53.470;9.832;2023-03-31T11:54:24;99379.91;;;15.32;88.27
8101;BME280;4093;53.470;9.832;2023-03-31T11:56:54;99385.56;;;14.94;89.39
8101;BME280;4093;53.470;9.832;2023-03-31T11:59:25;99386.75;;;15.19;88.85
8101;BME280;4093;53.470;9.832;2023-03-31T12:02:00;99375.81;;;15.28;88.55
8101;BME280;4093;53.470;9.832;2023-03-31T12:04:33;99370.78;;;15.25;89.03
8101;BME280;4093;53.470;9.832;2023-03-31T12:07:19;99367.84;;;14.71;90.60
8101;BME280;4093;53.470;9.832;2023-03-31T12:09:53;99371.53;;;14.83;91.03
8101;BME280;4093;53.470;9.832;2023-03-31T12:12:24;99354.25;;;14.66;91.07
8101;BME280;4093;53.470;9.832;2023-03-31T12:15:02;99364.59;;;14.35;91.47
8101;BME280;4093;53.470;9.832;2023-03-31T12:17:31;99361.53;;;13.64;94.69
8101;BME280;4093;53.470;9.832;2023-03-31T12:20:03;99375.41;;;14.44;93.51
8101;BME280;4093;53.470;9.832;2023-03-31T12:22:38;99368.91;;;15.13;91.19
8101;BME280;4093;53.470;9.832;2023-03-31T12:25:11;99360.41;;;14.95;91.14
8101;BME280;4093;53.470;9.832;2023-03-31T12:27:40;99357.47;;;14.85;90.71
8101;BME280;4093;53.470;9.832;2023-03-31T12:30:12;99351.00;;;14.92;91.01
8101;BME280;4093;53.470;9.832;2023-03-31T12:32:47;99354.13;;;15.27;89.74
8101;BME280;4093;53.470;9.832;2023-03-31T12:35:21;99355.00;;;15.42;89.78
8101;BME280;4093;53.470;9.832;2023-03-31T12:40:51;99321.03;;;15.30;90.34
8101;BME280;4093;53.470;9.832;2023-03-31T12:43:36;99333.31;;;15.42;89.76
8101;BME280;4093;53.470;9.832;2023-03-31T12:46:23;99333.41;;;15.55;89.03
8101;BME280;4093;53.470;9.832;2023-03-31T12:49:07;99323.28;;;14.91;91.15
8101;BME280;4093;53.470;9.832;2023-03-31T12:51:47;99313.75;;;15.06;89.72
8101;BME280;4093;53.470;9.832;2023-03-31T12:54:34;99321.22;;;15.26;90.63
8101;BME280;4093;53.470;9.832;2023-03-31T12:57:12;99322.88;;;15.27;88.72
8101;BME280;4093;53.470;9.832;2023-03-31T12:59:43;99303.63;;;15.16;89.83
8101;BME280;4093;53.470;9.832;2023-03-31T13:02:31;99316.47;;;15.76;86.87
8101;BME280;4093;53.470;9.832;2023-03-31T13:08:09;99312.41;;;16.13;85.06
8101;BME280;4093;53.470;9.832;2023-03-31T13:10:53;99303.03;;;16.11;85.55
8101;BME280;4093;53.470;9.832;2023-03-31T13:13:24;99291.66;;;15.70;85.60
8101;BME280;4093;53.470;9.832;2023-03-31T13:15:54;99303.22;;;16.08;85.78
8101;BME280;4093;53.470;9.832;2023-03-31T13:18:24;99287.56;;;16.08;85.66
8101;BME280;4093;53.470;9.832;2023-03-31T13:20:57;99276.47;;;15.48;87.38
8101;BME280;4093;53.470;9.832;2023-03-31T13:23:29;99290.00;;;15.96;85.79
8101;BME280;4093;53.470;9.832;2023-03-31T13:25:58;99281.28;;;15.26;86.81
8101;BME280;4093;53.470;9.832;2023-03-31T13:28:32;99275.19;;;15.27;88.47
8101;BME280;4093;53.470;9.832;2023-03-31T13:31:04;99288.47;;;16.07;86.68
8101;BME280;4093;53.470;9.832;2023-03-31T13:33:38;99271.34;;;15.47;87.91
8101;BME280;4093;53.470;9.832;2023-03-31T13:39:31;99277.09;;;16.62;83.04
8101;BME280;4093;53.470;9.832;2023-03-31T13:42:17;99273.72;;;16.20;83.41
8101;BME280;4093;53.470;9.832;2023-03-31T13:45:03;99276.72;;;16.41;83.42
8101;BME280;4093;53.470;9.832;2023-03-31T13:47:54;99255.66;;;15.90;83.21
8101;BME280;4093;53.470;9.832;2023-03-31T13:50:56;99265.72;;;15.82;84.36
8101;BME280;4093;53.470;9.832;2023-03-31T13:56:48;99263.75;;;15.85;83.06
8101;BME280;4093;53.470;9.832;2023-03-31T13:59:29;99249.72;;;15.88;82.95
8101;BME280;4093;53.470;9.832;2023-03-31T14:05:29;99254.34;;;16.24;81.51